createdAt,value
2022-12-13T00:01:54.927Z,-6.00
2022-12-13T00:04:27.598Z,-6.00
2022-12-13T00:06:55.758Z,-6.10
2022-12-13T00:09:24.235Z,-6.10
2022-12-13T00:11:52.371Z,-6.20
2022-12-13T00:14:20.459Z,-6.30
2022-12-13T00:16:49.999Z,-6.30
2022-12-13T00:19:19.206Z,-6.20
2022-12-13T00:21:48.052Z,-6.20
2022-12-13T00:24:16.113Z,-6.20
2022-12-13T00:26:44.231Z,-6.20
2022-12-13T00:29:13.203Z,-6.30
2022-12-13T00:32:00.405Z,-6.30
2022-12-13T00:34:29.597Z,-6.30
2022-12-13T00:37:00.345Z,-6.40
2022-12-13T00:39:29.044Z,-6.40
2022-12-13T00:41:56.992Z,-6.40
2022-12-13T00:44:25.173Z,-6.40
2022-12-13T00:46:53.200Z,-6.40
2022-12-13T00:49:21.219Z,-6.40
2022-12-13T00:51:50.652Z,-6.40
2022-12-13T00:54:18.757Z,-6.40
2022-12-13T00:56:46.716Z,-6.40
2022-12-13T00:59:16.865Z,-6.50
2022-12-13T01:01:45.706Z,-6.50
2022-12-13T01:04:14.343Z,-6.50
2022-12-13T01:06:45.397Z,-6.50
2022-12-13T01:09:21.241Z,-6.50
2022-12-13T01:11:51.147Z,-6.50
2022-12-13T01:14:20.215Z,-6.50
2022-12-13T01:16:48.781Z,-6.50
2022-12-13T01:19:17.251Z,-6.50
2022-12-13T01:21:45.161Z,-6.50
2022-12-13T01:24:13.207Z,-6.50
2022-12-13T01:26:41.183Z,-6.50
2022-12-13T01:29:10.091Z,-6.60
2022-12-13T01:31:42.582Z,-6.60
2022-12-13T01:34:14.942Z,-6.60
2022-12-13T01:36:45.430Z,-6.70
2022-12-13T01:39:17.019Z,-6.80
2022-12-13T01:41:47.139Z,-6.90
2022-12-13T01:44:52.723Z,-6.80
2022-12-13T01:47:47.930Z,-6.80
2022-12-13T01:50:24.406Z,-6.80
2022-12-13T01:52:55.860Z,-6.80
2022-12-13T01:55:31.328Z,-6.80
2022-12-13T01:58:03.689Z,-6.80
2022-12-13T02:00:32.094Z,-6.80
2022-12-13T02:03:02.240Z,-6.80
2022-12-13T02:05:42.787Z,-6.80
2022-12-13T02:08:14.842Z,-6.80
2022-12-13T02:10:44.802Z,-6.80
2022-12-13T02:13:13.611Z,-6.80
2022-12-13T02:16:22.701Z,-6.80
2022-12-13T02:18:54.244Z,-6.80
2022-12-13T02:22:07.093Z,-6.80
2022-12-13T02:24:53.959Z,-6.90
2022-12-13T02:27:51.873Z,-6.90
2022-12-13T02:30:43.978Z,-6.90
2022-12-13T02:33:50.416Z,-6.90
2022-12-13T02:36:35.955Z,-6.90
2022-12-13T02:39:12.571Z,-7.10
2022-12-13T02:41:51.147Z,-7.20
2022-12-13T02:44:24.063Z,-7.20
2022-12-13T02:47:00.324Z,-7.10
2022-12-13T02:49:32.224Z,-7.10
2022-12-13T02:52:04.319Z,-7.10
2022-12-13T02:54:32.567Z,-7.10
2022-12-13T02:57:01.680Z,-7.10
2022-12-13T02:59:36.603Z,-7.10
2022-12-13T03:02:43.239Z,-7.10
2022-12-13T03:05:38.430Z,-7.10
2022-12-13T03:08:42.118Z,-7.20
2022-12-13T03:11:14.838Z,-7.20
2022-12-13T03:13:56.507Z,-7.20
2022-12-13T03:16:44.591Z,-7.20
2022-12-13T03:19:14.762Z,-7.20
2022-12-13T03:21:48.269Z,-7.20
2022-12-13T03:24:21.514Z,-7.20
2022-12-13T03:26:51.539Z,-7.30
2022-12-13T03:29:23.825Z,-7.30
2022-12-13T03:31:54.103Z,-7.30
2022-12-13T03:34:22.335Z,-7.30
2022-12-13T03:36:51.803Z,-7.30
2022-12-13T03:39:20.433Z,-7.30
2022-12-13T03:41:48.872Z,-7.30
2022-12-13T03:44:17.070Z,-7.30
2022-12-13T03:46:45.743Z,-7.30
2022-12-13T03:49:17.173Z,-7.30
2022-12-13T03:51:46.023Z,-7.50
2022-12-13T03:54:14.054Z,-7.60
2022-12-13T03:56:41.978Z,-7.50
2022-12-13T03:59:09.916Z,-7.50
2022-12-13T04:01:37.867Z,-7.50
2022-12-13T04:04:05.843Z,-7.50
2022-12-13T04:06:33.844Z,-7.50
2022-12-13T04:09:01.779Z,-7.50
2022-12-13T04:11:51.798Z,-7.50
2022-12-13T04:14:22.612Z,-7.50
2022-12-13T04:16:52.320Z,-7.50
2022-12-13T04:19:22.746Z,-7.50
2022-12-13T04:21:53.340Z,-7.60
2022-12-13T04:24:22.177Z,-7.60
2022-12-13T04:27:00.829Z,-7.60
2022-12-13T04:29:33.907Z,-7.60
2022-12-13T04:32:04.259Z,-7.60
2022-12-13T04:34:37.169Z,-7.60
2022-12-13T04:37:06.667Z,-7.60
2022-12-13T04:39:34.852Z,-7.60
2022-12-13T04:42:02.896Z,-7.70
2022-12-13T04:44:36.460Z,-7.70
2022-12-13T04:47:05.666Z,-7.70
2022-12-13T04:49:34.253Z,-7.70
2022-12-13T04:52:03.732Z,-7.70
2022-12-13T04:54:36.253Z,-7.70
2022-12-13T04:57:12.804Z,-7.80
2022-12-13T04:59:41.739Z,-7.90
2022-12-13T05:02:11.555Z,-7.80
2022-12-13T05:04:39.534Z,-7.80
2022-12-13T05:07:07.534Z,-7.80
2022-12-13T05:09:35.547Z,-7.80
2022-12-13T05:12:03.716Z,-7.80
2022-12-13T05:14:32.734Z,-7.80
2022-12-13T05:17:01.942Z,-7.80
2022-12-13T05:19:31.245Z,-7.80
2022-12-13T05:22:02.185Z,-7.80
2022-12-13T05:24:32.012Z,-7.80
2022-12-13T05:27:00.601Z,-7.90
2022-12-13T05:29:29.404Z,-7.90
2022-12-13T05:31:57.578Z,-7.90
2022-12-13T05:34:25.578Z,-7.90
2022-12-13T05:36:53.501Z,-7.90
2022-12-13T05:39:29.323Z,-8.00
2022-12-13T05:42:01.422Z,-8.10
2022-12-13T05:44:33.820Z,-8.10
2022-12-13T05:47:02.991Z,-8.10
2022-12-13T05:49:32.326Z,-8.00
2022-12-13T05:52:00.934Z,-8.10
2022-12-13T05:54:29.096Z,-8.10
2022-12-13T05:56:57.085Z,-8.00
2022-12-13T05:59:25.023Z,-8.00
2022-12-13T06:01:53.074Z,-8.00
2022-12-13T06:04:22.299Z,-8.00
2022-12-13T06:06:52.253Z,-8.00
2022-12-13T06:09:24.414Z,-8.00
2022-12-13T06:12:01.114Z,-8.00
2022-12-13T06:14:29.575Z,-8.10
2022-12-13T06:16:57.535Z,-8.20
2022-12-13T06:19:26.558Z,-8.30
2022-12-13T06:21:56.186Z,-8.30
2022-12-13T06:24:25.388Z,-8.30
2022-12-13T06:26:54.334Z,-8.30
2022-12-13T06:29:25.708Z,-8.20
2022-12-13T06:32:02.311Z,-8.20
2022-12-13T06:34:33.410Z,-8.10
2022-12-13T06:37:07.158Z,-8.10
2022-12-13T06:39:35.840Z,-8.10
2022-12-13T06:42:07.580Z,-8.10
2022-12-13T06:44:37.196Z,-8.10
2022-12-13T06:47:10.743Z,-8.10
2022-12-13T06:49:41.362Z,-8.10
2022-12-13T06:52:14.154Z,-8.10
2022-12-13T06:57:24.270Z,-8.20
2022-12-13T06:59:52.159Z,-8.20
2022-12-13T07:02:25.489Z,-8.10
2022-12-13T07:04:54.667Z,-8.10
2022-12-13T07:07:23.336Z,-8.10
2022-12-13T07:09:51.313Z,-8.00
2022-12-13T07:12:20.384Z,-8.10
2022-12-13T07:14:48.608Z,-8.10
2022-12-13T07:17:34.004Z,-8.10
2022-12-13T07:20:08.952Z,-8.10
2022-12-13T07:22:44.783Z,-8.00
2022-12-13T07:25:26.809Z,-8.00
2022-12-13T07:28:05.011Z,-8.10
2022-12-13T07:30:40.910Z,-8.10
2022-12-13T07:33:10.681Z,-8.00
2022-12-13T07:35:38.623Z,-8.00
2022-12-13T07:38:10.895Z,-8.00
2022-12-13T07:40:40.614Z,-8.00
2022-12-13T07:43:09.196Z,-8.00
2022-12-13T07:45:37.777Z,-7.90
2022-12-13T07:48:07.191Z,-7.80
2022-12-13T07:50:37.370Z,-7.70
2022-12-13T07:53:08.291Z,-7.60
2022-12-13T07:55:37.065Z,-7.60
2022-12-13T07:58:10.450Z,-7.50
2022-12-13T08:00:45.926Z,-7.40
2022-12-13T08:03:25.180Z,-7.40
2022-12-13T08:06:01.735Z,-7.40
2022-12-13T08:08:30.812Z,-7.30
2022-12-13T08:11:04.201Z,-7.20
2022-12-13T08:13:32.220Z,-7.20
2022-12-13T08:16:05.659Z,-7.20
2022-12-13T08:18:53.600Z,-7.10
2022-12-13T08:21:54.136Z,-7.00
2022-12-13T08:24:25.322Z,-6.90
2022-12-13T08:26:55.737Z,-7.00
2022-12-13T08:29:34.245Z,-7.00
2022-12-13T08:32:06.123Z,-7.00
2022-12-13T08:34:34.127Z,-6.90
2022-12-13T08:37:03.960Z,-6.80
2022-12-13T08:39:36.252Z,-6.70
2022-12-13T08:42:14.726Z,-6.50
2022-12-13T08:44:46.756Z,-6.40
2022-12-13T08:47:23.709Z,-6.30
2022-12-13T08:50:02.056Z,-6.20
2022-12-13T08:52:39.046Z,-6.10
2022-12-13T08:55:10.195Z,-6.10
2022-12-13T08:57:38.881Z,-6.10
2022-12-13T09:00:08.514Z,-6.00
2022-12-13T09:02:38.472Z,-6.00
2022-12-13T09:05:08.371Z,-5.90
2022-12-13T09:07:37.808Z,-5.90
2022-12-13T09:10:07.224Z,-5.80
2022-12-13T09:13:01.898Z,-5.80
2022-12-13T09:15:34.330Z,-5.80
2022-12-13T09:18:05.683Z,-5.80
2022-12-13T09:20:40.682Z,-5.70
2022-12-13T09:23:14.063Z,-5.60
2022-12-13T09:26:05.375Z,-5.60
2022-12-13T09:28:34.829Z,-5.50
2022-12-13T09:31:03.267Z,-5.50
2022-12-13T09:33:31.459Z,-5.50
2022-12-13T09:36:01.400Z,-5.40
2022-12-13T09:38:29.975Z,-5.40
2022-12-13T09:41:00.411Z,-5.10
2022-12-13T09:43:42.415Z,-5.00
2022-12-13T09:46:44.922Z,-4.90
2022-12-13T09:49:22.960Z,-4.80
2022-12-13T09:52:10.791Z,-4.80
2022-12-13T09:54:48.237Z,-4.70
2022-12-13T09:57:31.133Z,-4.70
2022-12-13T10:00:12.036Z,-4.60
2022-12-13T10:02:48.500Z,-4.50
2022-12-13T10:05:23.002Z,-4.50
2022-12-13T10:07:55.445Z,-4.50
2022-12-13T10:10:23.619Z,-4.50
2022-12-13T10:13:07.002Z,-4.40
2022-12-13T10:15:40.004Z,-4.40
2022-12-13T10:18:13.900Z,-4.30
2022-12-13T10:20:43.719Z,-4.40
2022-12-13T10:23:35.817Z,-4.40
2022-12-13T10:26:03.167Z,-4.40
2022-12-13T10:28:34.529Z,-4.40
2022-12-13T10:31:03.004Z,-4.20
2022-12-13T10:33:39.264Z,-4.10
2022-12-13T10:36:15.749Z,-4.10
2022-12-13T10:38:47.079Z,-4.10
2022-12-13T10:41:36.298Z,-4.10
2022-12-13T10:44:13.160Z,-4.10
2022-12-13T10:46:43.857Z,-4.00
2022-12-13T10:49:27.356Z,-3.90
2022-12-13T10:52:03.003Z,-3.80
2022-12-13T10:54:48.736Z,-3.80
2022-12-13T10:57:20.743Z,-3.70
2022-12-13T10:59:51.850Z,-3.60
2022-12-13T11:02:39.330Z,-3.50
2022-12-13T11:05:39.119Z,-3.50
2022-12-13T11:08:24.676Z,-3.40
2022-12-13T11:11:04.524Z,-3.40
2022-12-13T11:13:55.223Z,-3.40
2022-12-13T11:16:31.683Z,-3.30
2022-12-13T11:19:04.178Z,-3.30
2022-12-13T11:21:38.636Z,-3.30
2022-12-13T11:27:01.871Z,-3.10
2022-12-13T11:29:59.177Z,-3.10
2022-12-13T11:32:41.329Z,-3.10
2022-12-13T11:35:33.862Z,-3.00
2022-12-13T11:38:01.842Z,-2.90
2022-12-13T11:40:45.235Z,-2.80
2022-12-13T11:43:34.359Z,-2.90
2022-12-13T11:46:18.667Z,-2.90
2022-12-13T11:49:04.625Z,-2.80
2022-12-13T11:51:40.175Z,-2.70
2022-12-13T11:54:23.649Z,-2.70
2022-12-13T11:57:00.482Z,-2.70
2022-12-13T11:59:46.526Z,-2.70
2022-12-13T12:02:39.577Z,-2.70
2022-12-13T12:05:20.451Z,-2.60
2022-12-13T12:08:31.370Z,-2.60
2022-12-13T12:10:56.327Z,-2.50
2022-12-13T12:13:54.176Z,-2.50
2022-12-13T12:16:38.975Z,-2.40
2022-12-13T12:19:15.767Z,-2.40
2022-12-13T12:22:13.852Z,-2.40
2022-12-13T12:25:05.087Z,-2.50
2022-12-13T12:27:54.563Z,-2.50
2022-12-13T12:30:41.858Z,-2.40
2022-12-13T12:33:30.216Z,-2.40
2022-12-13T12:36:32.775Z,-2.30
2022-12-13T12:39:18.734Z,-2.30
2022-12-13T12:42:00.397Z,-2.20
2022-12-13T12:44:47.240Z,-2.30
2022-12-13T12:48:03.617Z,-2.20
2022-12-13T12:50:28.728Z,-2.20
2022-12-13T12:53:10.109Z,-2.20
2022-12-13T12:56:03.793Z,-2.20
2022-12-13T12:58:48.033Z,-2.10
2022-12-13T13:01:43.603Z,-2.10
2022-12-13T13:04:14.059Z,-2.10
2022-12-13T13:07:01.678Z,-2.10
2022-12-13T13:09:35.258Z,-2.10
2022-12-13T13:12:29.618Z,-2.10
2022-12-13T13:14:59.260Z,-2.00
2022-12-13T13:17:27.162Z,-2.00
2022-12-13T13:20:15.000Z,-1.70
2022-12-13T13:22:47.668Z,-1.50
2022-12-13T13:25:32.151Z,-1.40
2022-12-13T13:28:16.839Z,-1.40
2022-12-13T13:31:17.220Z,-1.40
2022-12-13T13:33:48.446Z,-1.40
2022-12-13T13:36:42.677Z,-1.40
2022-12-13T13:39:55.042Z,-1.40
2022-12-13T13:42:25.404Z,-1.40
2022-12-13T13:44:53.622Z,-1.40
2022-12-13T13:47:21.533Z,-1.40
2022-12-13T13:50:02.257Z,-1.40
2022-12-13T13:52:45.667Z,-1.40
2022-12-13T13:55:22.711Z,-1.40
2022-12-13T13:58:21.972Z,-1.40
2022-12-13T14:01:11.569Z,-1.40
2022-12-13T14:04:05.096Z,-1.50
2022-12-13T14:06:48.256Z,-1.50
2022-12-13T14:09:46.539Z,-1.50
2022-12-13T14:12:42.235Z,-1.60
2022-12-13T14:15:49.552Z,-1.60
2022-12-13T14:18:52.769Z,-1.60
2022-12-13T14:21:27.808Z,-1.50
2022-12-13T14:24:04.343Z,-1.60
2022-12-13T14:26:32.268Z,-1.60
2022-12-13T14:29:02.945Z,-1.60
2022-12-13T14:31:42.712Z,-1.60
2022-12-13T14:34:27.096Z,-1.70
2022-12-13T14:37:04.695Z,-1.70
2022-12-13T14:39:35.816Z,-1.70
2022-12-13T14:42:23.001Z,-1.70
2022-12-13T14:44:51.007Z,-1.70
2022-12-13T14:47:19.970Z,-1.80
2022-12-13T14:49:52.857Z,-1.90
2022-12-13T14:52:30.535Z,-1.90
2022-12-13T14:55:07.295Z,-2.00
2022-12-13T14:57:36.661Z,-2.00
2022-12-13T15:00:25.415Z,-2.00
2022-12-13T15:02:55.898Z,-2.10
2022-12-13T15:05:51.677Z,-2.20
2022-12-13T15:08:20.766Z,-2.20
2022-12-13T15:11:03.071Z,-2.30
2022-12-13T15:13:46.060Z,-2.40
2022-12-13T15:16:29.414Z,-2.40
2022-12-13T15:19:30.062Z,-2.50
2022-12-13T15:22:17.059Z,-2.60
2022-12-13T15:24:55.540Z,-2.70
2022-12-13T15:27:28.900Z,-2.70
2022-12-13T15:29:57.276Z,-2.80
2022-12-13T15:32:25.306Z,-2.80
2022-12-13T15:34:53.595Z,-2.90
2022-12-13T15:37:34.330Z,-3.00
2022-12-13T15:40:09.258Z,-3.10
2022-12-13T15:42:40.099Z,-3.10
2022-12-13T15:45:37.499Z,-3.20
2022-12-13T15:48:06.095Z,-3.20
2022-12-13T15:50:47.191Z,-3.30
2022-12-13T15:53:30.156Z,-3.30
2022-12-13T15:56:01.204Z,-3.40
2022-12-13T15:58:36.265Z,-3.40
2022-12-13T16:01:07.838Z,-3.50
2022-12-13T16:03:45.405Z,-3.60
2022-12-13T16:06:20.539Z,-3.70
2022-12-13T16:08:52.836Z,-3.70
2022-12-13T16:11:48.073Z,-3.70
2022-12-13T16:14:31.388Z,-3.80
2022-12-13T16:17:30.584Z,-3.80
2022-12-13T16:20:06.040Z,-3.80
2022-12-13T16:22:37.230Z,-3.90
2022-12-13T16:25:05.711Z,-3.90
2022-12-13T16:27:33.655Z,-4.00
2022-12-13T16:30:01.861Z,-4.10
2022-12-13T16:32:33.225Z,-4.10
2022-12-13T16:35:05.403Z,-4.10
2022-12-13T16:37:36.321Z,-4.20
2022-12-13T16:40:29.635Z,-4.30
2022-12-13T16:43:00.091Z,-4.30
2022-12-13T16:45:52.952Z,-4.30
2022-12-13T16:48:22.537Z,-4.30
2022-12-13T16:50:57.649Z,-4.30
2022-12-13T16:53:26.449Z,-4.30
2022-12-13T16:55:58.141Z,-4.20
2022-12-13T16:58:27.441Z,-4.20
2022-12-13T17:00:58.724Z,-4.20
2022-12-13T17:03:30.939Z,-4.10
2022-12-13T17:05:59.999Z,-4.10
2022-12-13T17:08:30.419Z,-4.10
2022-12-13T17:10:59.000Z,-4.00
2022-12-13T17:13:28.179Z,-4.00
2022-12-13T17:15:59.357Z,-3.90
2022-12-13T17:18:28.331Z,-3.90
2022-12-13T17:20:58.934Z,-4.00
2022-12-13T17:23:28.280Z,-4.00
2022-12-13T17:25:58.087Z,-4.00
2022-12-13T17:28:26.877Z,-4.00
2022-12-13T17:30:55.194Z,-4.00
2022-12-13T17:33:23.902Z,-4.00
2022-12-13T17:35:51.996Z,-4.00
2022-12-13T17:38:19.977Z,-4.10
2022-12-13T17:40:54.710Z,-4.20
2022-12-13T17:43:32.987Z,-4.20
2022-12-13T17:46:04.237Z,-4.20
2022-12-13T17:48:39.601Z,-4.20
2022-12-13T17:51:10.672Z,-4.20
2022-12-13T17:53:41.002Z,-4.20
2022-12-13T17:56:16.267Z,-4.30
2022-12-13T17:58:47.564Z,-4.30
2022-12-13T18:01:20.352Z,-4.30
2022-12-13T18:03:50.282Z,-4.40
2022-12-13T18:06:18.327Z,-4.40
2022-12-13T18:08:46.891Z,-4.50
2022-12-13T18:11:33.653Z,-4.50
2022-12-13T18:14:07.107Z,-4.50
2022-12-13T18:16:37.903Z,-4.50
2022-12-13T18:19:13.175Z,-4.60
2022-12-13T18:21:42.072Z,-4.70
2022-12-13T18:24:11.211Z,-4.80
2022-12-13T18:26:39.159Z,-4.70
2022-12-13T18:29:07.113Z,-4.80
2022-12-13T18:31:35.618Z,-4.80
2022-12-13T18:34:03.915Z,-4.80
2022-12-13T18:36:32.251Z,-4.90
2022-12-13T18:39:01.166Z,-4.90
2022-12-13T18:41:30.575Z,-4.80
2022-12-13T18:44:09.196Z,-4.80
2022-12-13T18:46:42.214Z,-4.90
2022-12-13T18:49:13.020Z,-5.00
2022-12-13T18:51:40.938Z,-5.00
2022-12-13T18:54:08.982Z,-5.00
2022-12-13T18:56:36.925Z,-4.90
2022-12-13T18:59:04.883Z,-4.90
2022-12-13T19:01:33.011Z,-4.80
2022-12-13T19:04:01.065Z,-4.80
2022-12-13T19:06:29.693Z,-4.70
2022-12-13T19:08:59.406Z,-4.60
2022-12-13T19:11:29.035Z,-4.60
2022-12-13T19:13:57.469Z,-4.50
2022-12-13T19:16:26.718Z,-4.40
2022-12-13T19:18:55.223Z,-4.30
2022-12-13T19:21:24.048Z,-4.30
2022-12-13T19:23:57.324Z,-4.20
2022-12-13T19:26:26.956Z,-4.20
2022-12-13T19:28:57.566Z,-4.20
2022-12-13T19:31:31.014Z,-4.10
2022-12-13T19:34:02.371Z,-4.10
2022-12-13T19:36:32.071Z,-4.10
2022-12-13T19:39:00.164Z,-4.10
2022-12-13T19:41:28.266Z,-4.10
2022-12-13T19:43:56.267Z,-4.10
2022-12-13T19:46:24.460Z,-4.10
2022-12-13T19:48:57.268Z,-4.10
2022-12-13T19:51:28.451Z,-4.00
2022-12-13T19:53:56.346Z,-4.10
2022-12-13T19:56:24.356Z,-4.10
2022-12-13T19:58:52.452Z,-4.10
2022-12-13T20:01:20.757Z,-4.10
2022-12-13T20:03:49.444Z,-4.00
2022-12-13T20:06:21.483Z,-4.10
2022-12-13T20:08:49.976Z,-4.10
2022-12-13T20:11:21.866Z,-4.10
2022-12-13T20:13:51.310Z,-4.10
2022-12-13T20:16:21.597Z,-4.10
2022-12-13T20:18:54.225Z,-4.10
2022-12-13T20:21:22.304Z,-4.10
2022-12-13T20:23:50.849Z,-4.10
2022-12-13T20:26:22.071Z,-4.10
2022-12-13T20:28:50.947Z,-4.10
2022-12-13T20:31:21.859Z,-4.00
2022-12-13T20:33:50.222Z,-4.00
2022-12-13T20:36:25.881Z,-4.00
2022-12-13T20:39:02.259Z,-4.00
2022-12-13T20:41:34.797Z,-4.00
2022-12-13T20:44:06.949Z,-4.00
2022-12-13T20:46:35.434Z,-4.00
2022-12-13T20:49:05.093Z,-3.90
2022-12-13T20:51:34.928Z,-3.90
2022-12-13T20:54:03.746Z,-4.00
2022-12-13T20:56:36.153Z,-3.90
2022-12-13T20:59:10.173Z,-3.90
2022-12-13T21:01:39.730Z,-3.90
2022-12-13T21:04:09.445Z,-3.90
2022-12-13T21:06:39.768Z,-3.90
2022-12-13T21:09:09.370Z,-3.90
2022-12-13T21:11:49.079Z,-3.80
2022-12-13T21:14:26.295Z,-3.80
2022-12-13T21:17:02.290Z,-3.80
2022-12-13T21:19:39.422Z,-3.90
2022-12-13T21:22:08.921Z,-3.90
2022-12-13T21:24:36.838Z,-4.00
2022-12-13T21:27:06.081Z,-3.90
2022-12-13T21:29:33.995Z,-3.90
2022-12-13T21:32:01.974Z,-3.90
2022-12-13T21:34:30.287Z,-3.90
2022-12-13T21:36:58.386Z,-3.90
2022-12-13T21:39:30.549Z,-3.90
2022-12-13T21:41:58.838Z,-4.00
2022-12-13T21:44:26.763Z,-4.00
2022-12-13T21:49:48.764Z,-4.00
2022-12-13T21:52:17.773Z,-4.00
2022-12-13T21:54:45.742Z,-3.90
2022-12-13T21:57:35.551Z,-4.00
2022-12-13T22:00:03.740Z,-3.90
2022-12-13T22:02:40.879Z,-3.90
2022-12-13T22:05:11.336Z,-3.90
2022-12-13T22:07:39.583Z,-3.90
2022-12-13T22:10:08.356Z,-3.80
2022-12-13T22:12:39.365Z,-3.80
2022-12-13T22:15:09.558Z,-3.80
2022-12-13T22:17:38.484Z,-3.80
2022-12-13T22:20:09.507Z,-3.80
2022-12-13T22:22:39.415Z,-3.80
2022-12-13T22:25:08.790Z,-3.80
2022-12-13T22:27:36.709Z,-3.70
2022-12-13T22:30:05.177Z,-3.70
2022-12-13T22:32:35.136Z,-3.70
2022-12-13T22:35:03.105Z,-3.70
2022-12-13T22:37:31.194Z,-3.70
2022-12-13T22:39:59.228Z,-3.70
2022-12-13T22:42:27.455Z,-3.70
2022-12-13T22:44:55.501Z,-3.70
2022-12-13T22:47:23.439Z,-3.70
2022-12-13T22:49:51.466Z,-3.70
2022-12-13T22:52:19.397Z,-3.70
2022-12-13T22:54:47.375Z,-3.70
2022-12-13T22:57:15.486Z,-3.70
2022-12-13T22:59:43.473Z,-3.70
2022-12-13T23:02:11.811Z,-3.70
2022-12-13T23:04:39.892Z,-3.60
2022-12-13T23:07:07.874Z,-3.60
2022-12-13T23:09:35.819Z,-3.60
2022-12-13T23:12:22.528Z,-3.50
2022-12-13T23:14:53.601Z,-3.50
2022-12-13T23:17:21.666Z,-3.50
2022-12-13T23:19:53.492Z,-3.50
2022-12-13T23:22:26.848Z,-3.50
2022-12-13T23:24:55.244Z,-3.50
2022-12-13T23:27:25.862Z,-3.50
2022-12-13T23:29:53.819Z,-3.50
2022-12-13T23:32:21.728Z,-3.50
2022-12-13T23:34:49.696Z,-3.50
2022-12-13T23:37:17.754Z,-3.50
2022-12-13T23:39:47.829Z,-3.50
2022-12-13T23:42:15.843Z,-3.50
2022-12-13T23:44:43.815Z,-3.50
2022-12-13T23:47:11.792Z,-3.50
2022-12-13T23:49:39.717Z,-3.50
2022-12-13T23:52:07.684Z,-3.40
2022-12-13T23:54:35.619Z,-3.40
2022-12-13T23:57:03.883Z,-3.40
2022-12-13T23:59:32.144Z,-3.40
